createdAt,value
2024-04-06T00:00:42.302Z,70.97
2024-04-06T00:03:30.131Z,70.98
2024-04-06T00:05:58.081Z,71.14
2024-04-06T00:08:25.982Z,71.09
2024-04-06T00:10:53.913Z,71.03
2024-04-06T00:13:21.774Z,71.00
2024-04-06T00:15:49.751Z,71.07
2024-04-06T00:18:17.616Z,70.92
2024-04-06T00:20:45.472Z,71.07
2024-04-06T00:23:13.497Z,70.97
2024-04-06T00:25:41.319Z,70.95
2024-04-06T00:28:09.276Z,71.00
2024-04-06T00:30:37.136Z,70.99
2024-04-06T00:33:05.208Z,70.98
2024-04-06T00:35:33.074Z,70.96
2024-04-06T00:38:01.062Z,70.94
2024-04-06T00:40:29.131Z,70.99
2024-04-06T00:42:57.080Z,70.98
2024-04-06T00:45:25.255Z,70.93
2024-04-06T00:47:53.131Z,70.88
2024-04-06T00:50:21.149Z,70.85
2024-04-06T00:52:49.069Z,70.72
2024-04-06T00:55:18.260Z,70.74
2024-04-06T00:57:46.113Z,70.81
2024-04-06T01:00:14.201Z,70.74
2024-04-06T01:02:42.356Z,70.79
2024-04-06T01:05:10.223Z,70.66
2024-04-06T01:07:40.647Z,70.52
2024-04-06T01:10:08.615Z,70.59
2024-04-06T01:12:36.688Z,70.49
2024-04-06T01:15:05.295Z,70.54
2024-04-06T01:17:33.447Z,70.55
2024-04-06T01:20:01.627Z,70.62
2024-04-06T01:22:29.781Z,70.65
2024-04-06T01:24:59.137Z,70.63
2024-04-06T01:27:29.507Z,70.56
2024-04-06T01:29:57.479Z,70.55
2024-04-06T01:32:25.552Z,70.73
2024-04-06T01:34:53.615Z,70.52
2024-04-06T01:37:21.482Z,70.49
2024-04-06T01:39:49.346Z,70.35
2024-04-06T01:42:17.222Z,70.44
2024-04-06T01:44:45.087Z,70.41
2024-04-06T01:47:12.942Z,70.31
2024-04-06T01:49:40.809Z,70.31
2024-04-06T01:52:08.672Z,70.28
2024-04-06T01:54:36.545Z,70.19
2024-04-06T01:57:04.812Z,70.25
2024-04-06T01:59:35.954Z,70.27
2024-04-06T02:02:04.332Z,70.23
2024-04-06T02:04:32.204Z,70.16
2024-04-06T02:07:00.068Z,70.11
2024-04-06T02:09:27.927Z,70.01
2024-04-06T02:11:55.892Z,69.97
2024-04-06T02:14:23.898Z,69.75
2024-04-06T02:16:52.400Z,69.86
2024-04-06T02:19:20.224Z,69.60
2024-04-06T02:21:48.074Z,69.65
2024-04-06T02:24:18.513Z,69.65
2024-04-06T02:26:46.373Z,69.62
2024-04-06T02:29:14.957Z,69.83
2024-04-06T02:31:43.519Z,69.66
2024-04-06T02:34:11.497Z,69.68
2024-04-06T02:36:42.640Z,69.55
2024-04-06T02:39:11.736Z,69.50
2024-04-06T02:41:39.599Z,69.33
2024-04-06T02:44:07.468Z,69.36
2024-04-06T02:46:35.337Z,69.06
2024-04-06T02:49:03.194Z,69.04
2024-04-06T02:51:31.268Z,68.78
2024-04-06T02:53:59.128Z,68.93
2024-04-06T02:56:27.109Z,69.11
2024-04-06T02:58:55.065Z,68.94
2024-04-06T03:01:22.929Z,68.65
2024-04-06T03:03:50.791Z,68.81
2024-04-06T03:06:18.764Z,69.02
2024-04-06T03:08:46.625Z,68.79
2024-04-06T03:11:14.595Z,68.89
2024-04-06T03:13:42.464Z,69.04
2024-04-06T03:16:10.325Z,69.68
2024-04-06T03:18:38.191Z,69.70
2024-04-06T03:21:07.081Z,69.54
2024-04-06T03:23:34.966Z,69.41
2024-04-06T03:26:02.915Z,69.49
2024-04-06T03:28:30.982Z,70.30
2024-04-06T03:30:59.981Z,70.32
2024-04-06T03:33:28.042Z,70.23
2024-04-06T03:35:56.327Z,70.57
2024-04-06T03:38:24.190Z,70.85
2024-04-06T03:40:52.258Z,71.17
2024-04-06T03:43:20.122Z,71.14
2024-04-06T03:45:48.604Z,71.56
2024-04-06T03:48:16.573Z,71.85
2024-04-06T03:50:44.449Z,71.99
2024-04-06T03:53:12.809Z,72.02
2024-04-06T03:55:40.776Z,72.21
2024-04-06T03:58:09.060Z,72.27
2024-04-06T04:00:37.357Z,72.15
2024-04-06T04:03:05.811Z,72.19
2024-04-06T04:05:33.982Z,72.50
2024-04-06T04:08:02.149Z,72.29
2024-04-06T04:10:30.019Z,72.29
2024-04-06T04:12:59.221Z,72.57
2024-04-06T04:15:27.080Z,72.70
2024-04-06T04:17:55.250Z,72.51
2024-04-06T04:20:23.125Z,71.98
2024-04-06T04:22:50.990Z,72.17
2024-04-06T04:25:18.915Z,72.13
2024-04-06T04:27:47.142Z,71.48
2024-04-06T04:30:17.045Z,71.39
2024-04-06T04:32:45.174Z,71.41
2024-04-06T04:35:13.484Z,71.38
2024-04-06T04:37:41.456Z,71.83
2024-04-06T04:40:10.441Z,71.33
2024-04-06T04:42:39.640Z,70.98
2024-04-06T04:45:13.055Z,71.29
2024-04-06T04:47:41.888Z,71.16
2024-04-06T04:50:13.171Z,71.02
2024-04-06T04:52:41.138Z,70.67
2024-04-06T04:55:09.003Z,70.53
2024-04-06T04:57:37.689Z,70.94
2024-04-06T05:00:06.476Z,71.37
2024-04-06T05:02:35.128Z,71.50
2024-04-06T05:05:05.179Z,71.52
2024-04-06T05:07:33.040Z,71.83
2024-04-06T05:10:01.533Z,72.31
2024-04-06T05:12:29.589Z,72.44
2024-04-06T05:14:57.791Z,72.27
2024-04-06T05:17:26.716Z,72.50
2024-04-06T05:19:54.830Z,72.56
2024-04-06T05:22:22.794Z,72.40
2024-04-06T05:24:50.656Z,72.15
2024-04-06T05:27:18.523Z,72.28
2024-04-06T05:29:46.392Z,72.22
2024-04-06T05:32:14.272Z,72.11
2024-04-06T05:34:42.142Z,72.35
2024-04-06T05:37:09.984Z,72.14
2024-04-06T05:39:37.854Z,71.94
2024-04-06T05:42:06.182Z,71.92
2024-04-06T05:44:34.018Z,71.76
2024-04-06T05:47:02.074Z,71.62
2024-04-06T05:49:29.929Z,71.55
2024-04-06T05:51:57.791Z,71.40
2024-04-06T05:54:25.656Z,71.30
2024-04-06T05:56:53.626Z,71.14
2024-04-06T05:59:21.488Z,70.94
2024-04-06T06:01:49.228Z,70.84
2024-04-06T06:04:17.116Z,70.57
2024-04-06T06:06:44.980Z,70.22
2024-04-06T06:09:12.846Z,70.04
2024-04-06T06:11:40.712Z,69.71
2024-04-06T06:14:08.487Z,69.55
2024-04-06T06:16:36.365Z,69.31
2024-04-06T06:19:04.408Z,69.14
2024-04-06T06:21:32.224Z,69.21
2024-04-06T06:24:00.165Z,68.96
2024-04-06T06:26:28.070Z,68.83
2024-04-06T06:28:55.974Z,68.95
2024-04-06T06:31:23.838Z,68.95
2024-04-06T06:33:52.830Z,68.65
2024-04-06T06:41:22.980Z,68.20
2024-04-06T06:43:50.854Z,67.52
2024-04-06T06:46:18.819Z,67.23
2024-04-06T06:48:46.679Z,67.16
2024-04-06T06:51:14.649Z,66.13
2024-04-06T06:53:42.831Z,66.19
2024-04-06T06:56:10.759Z,65.97
2024-04-06T06:58:38.653Z,65.27
2024-04-06T07:01:06.720Z,65.37
2024-04-06T07:03:34.688Z,65.04
2024-04-06T07:06:04.910Z,64.72
2024-04-06T07:08:32.928Z,64.32
2024-04-06T07:11:04.533Z,64.57
2024-04-06T07:13:32.731Z,64.50
2024-04-06T07:16:08.290Z,64.69
2024-04-06T07:18:38.950Z,64.55
2024-04-06T07:21:11.927Z,64.56
2024-04-06T07:23:39.936Z,64.34
2024-04-06T07:26:08.108Z,64.42
2024-04-06T07:28:39.148Z,64.41
2024-04-06T07:31:07.840Z,64.29
2024-04-06T07:33:35.696Z,64.13
2024-04-06T07:36:03.979Z,63.40
2024-04-06T07:38:31.951Z,63.51
2024-04-06T07:41:00.577Z,63.01
2024-04-06T07:43:29.115Z,62.05
2024-04-06T07:45:57.380Z,61.83
2024-04-06T07:48:25.361Z,61.52
2024-04-06T07:50:53.636Z,61.12
2024-04-06T07:53:23.516Z,60.91
2024-04-06T07:55:51.355Z,60.39
2024-04-06T07:58:19.267Z,59.94
2024-04-06T08:00:47.157Z,59.43
2024-04-06T08:03:14.998Z,58.73
2024-04-06T08:05:42.941Z,59.36
2024-04-06T08:08:10.728Z,60.11
2024-04-06T08:10:39.860Z,59.75
2024-04-06T08:13:07.941Z,60.60
2024-04-06T08:15:35.959Z,60.38
2024-04-06T08:18:04.728Z,60.75
2024-04-06T08:20:32.712Z,61.09
2024-04-06T08:23:00.688Z,61.10
2024-04-06T08:25:28.857Z,61.43
2024-04-06T08:27:56.721Z,62.78
2024-04-06T08:30:24.586Z,63.76
2024-04-06T08:33:01.989Z,62.92
2024-04-06T08:35:30.456Z,61.37
2024-04-06T08:37:58.319Z,60.17
2024-04-06T08:40:26.197Z,59.09
2024-04-06T08:42:57.748Z,58.34
2024-04-06T08:45:26.948Z,58.15
2024-04-06T08:47:55.926Z,58.29
2024-04-06T08:50:25.960Z,58.57
2024-04-06T08:52:54.012Z,58.45
2024-04-06T08:55:22.801Z,58.54
2024-04-06T08:57:51.175Z,57.91
2024-04-06T09:00:20.271Z,57.69
2024-04-06T09:02:48.238Z,57.22
2024-04-06T09:05:16.307Z,56.99
2024-04-06T09:07:44.687Z,56.26
2024-04-06T09:10:12.560Z,55.95
2024-04-06T09:12:41.230Z,57.00
2024-04-06T09:15:13.713Z,55.58
2024-04-06T09:17:43.823Z,55.22
2024-04-06T09:20:15.056Z,55.73
2024-04-06T09:22:43.878Z,54.62
2024-04-06T09:25:11.985Z,55.05
2024-04-06T09:27:46.142Z,55.16
2024-04-06T09:30:14.623Z,54.88
2024-04-06T09:32:44.327Z,55.06
2024-04-06T09:35:12.195Z,54.30
2024-04-06T09:37:41.598Z,54.38
2024-04-06T09:40:09.968Z,54.77
2024-04-06T09:42:38.666Z,54.91
2024-04-06T09:45:07.752Z,54.67
2024-04-06T09:47:36.549Z,54.82
2024-04-06T09:50:05.636Z,54.84
2024-04-06T09:52:33.811Z,54.44
2024-04-06T09:55:01.887Z,53.48
2024-04-06T09:57:30.356Z,53.22
2024-04-06T10:00:02.316Z,52.67
2024-04-06T10:02:33.975Z,51.96
2024-04-06T10:05:06.252Z,51.77
2024-04-06T10:07:35.343Z,51.99
2024-04-06T10:10:08.180Z,51.48
2024-04-06T10:12:43.538Z,52.39
2024-04-06T10:15:12.555Z,51.39
2024-04-06T10:17:46.234Z,51.34
2024-04-06T10:20:17.907Z,50.94
2024-04-06T10:22:52.683Z,50.25
2024-04-06T10:25:27.734Z,50.61
2024-04-06T10:28:02.160Z,48.47
2024-04-06T10:30:30.471Z,48.07
2024-04-06T10:32:58.743Z,47.72
2024-04-06T10:35:27.318Z,47.98
2024-04-06T10:37:56.415Z,46.49
2024-04-06T10:40:29.105Z,46.19
2024-04-06T10:42:56.959Z,45.24
2024-04-06T10:45:24.821Z,44.90
2024-04-06T10:47:52.690Z,44.19
2024-04-06T10:50:20.752Z,43.55
2024-04-06T10:52:49.030Z,44.68
2024-04-06T10:55:17.360Z,44.37
2024-04-06T10:57:45.478Z,44.79
2024-04-06T11:00:14.695Z,43.99
2024-04-06T11:02:43.870Z,44.16
2024-04-06T11:05:14.103Z,43.56
2024-04-06T11:07:42.993Z,43.36
2024-04-06T11:10:11.894Z,42.46
2024-04-06T11:12:40.983Z,42.04
2024-04-06T11:15:10.552Z,41.68
2024-04-06T11:17:38.435Z,41.87
2024-04-06T11:20:08.244Z,41.88
2024-04-06T11:22:40.316Z,41.82
2024-04-06T11:25:08.795Z,41.88
2024-04-06T11:27:36.662Z,42.32
2024-04-06T11:30:06.160Z,41.61
2024-04-06T11:32:34.141Z,41.06
2024-04-06T11:35:01.995Z,41.44
2024-04-06T11:37:29.960Z,41.54
2024-04-06T11:39:57.828Z,41.40
2024-04-06T11:42:27.466Z,41.45
2024-04-06T11:44:56.732Z,41.42
2024-04-06T11:47:24.611Z,41.42
2024-04-06T11:49:52.459Z,41.70
2024-04-06T11:52:20.684Z,41.15
2024-04-06T11:54:50.034Z,41.14
2024-04-06T11:57:17.904Z,41.93
2024-04-06T11:59:45.766Z,42.02
2024-04-06T12:02:13.631Z,42.16
2024-04-06T12:04:41.804Z,40.91
2024-04-06T12:07:10.181Z,40.19
2024-04-06T12:09:39.175Z,39.26
2024-04-06T12:12:09.345Z,39.06
2024-04-06T12:14:37.462Z,38.25
2024-04-06T12:17:11.749Z,37.71
2024-04-06T12:19:39.745Z,37.72
2024-04-06T12:22:07.753Z,36.85
2024-04-06T12:24:39.080Z,36.22
2024-04-06T12:27:07.541Z,35.47
2024-04-06T12:29:35.515Z,34.64
2024-04-06T12:32:05.011Z,35.04
2024-04-06T12:34:32.877Z,35.10
2024-04-06T12:37:04.754Z,35.52
2024-04-06T12:39:32.601Z,35.56
2024-04-06T12:42:00.628Z,35.69
2024-04-06T12:44:28.537Z,35.99
2024-04-06T12:46:56.414Z,36.91
2024-04-06T12:49:24.443Z,37.62
2024-04-06T12:51:52.468Z,37.95
2024-04-06T12:54:22.230Z,38.87
2024-04-06T12:57:09.786Z,39.76
2024-04-06T12:59:38.355Z,40.08
2024-04-06T13:02:07.540Z,40.35
2024-04-06T13:04:35.422Z,40.26
2024-04-06T13:07:04.311Z,40.30
2024-04-06T13:09:32.177Z,40.25
2024-04-06T13:12:00.043Z,40.95
2024-04-06T13:14:28.929Z,41.04
2024-04-06T13:16:56.999Z,41.39
2024-04-06T13:19:26.551Z,40.86
2024-04-06T13:21:54.482Z,40.57
2024-04-06T13:24:22.543Z,40.25
2024-04-06T13:26:50.510Z,39.84
2024-04-06T13:29:18.375Z,39.74
2024-04-06T13:31:46.241Z,38.87
2024-04-06T13:34:14.104Z,38.24
2024-04-06T13:36:42.072Z,36.76
2024-04-06T13:39:13.325Z,36.07
2024-04-06T13:41:41.184Z,35.76
2024-04-06T13:44:09.048Z,35.29
2024-04-06T13:46:36.913Z,35.72
2024-04-06T13:49:05.055Z,35.82
2024-04-06T13:51:32.905Z,35.39
2024-04-06T13:54:00.714Z,35.43
2024-04-06T13:56:28.580Z,35.16
2024-04-06T13:58:56.455Z,34.38
2024-04-06T14:01:24.356Z,33.75
2024-04-06T14:03:52.277Z,34.03
2024-04-06T14:06:20.716Z,33.94
2024-04-06T14:08:48.625Z,34.06
2024-04-06T14:11:16.469Z,34.83
2024-04-06T14:13:45.482Z,35.10
2024-04-06T14:16:13.453Z,35.00
2024-04-06T14:18:41.518Z,35.00
2024-04-06T14:21:09.484Z,35.26
2024-04-06T14:23:37.661Z,35.18
2024-04-06T14:26:06.754Z,35.47
2024-04-06T14:28:34.738Z,35.59
2024-04-06T14:31:02.799Z,35.39
2024-04-06T14:33:31.061Z,35.84
2024-04-06T14:35:58.940Z,35.90
2024-04-06T14:38:27.410Z,35.95
2024-04-06T14:40:55.275Z,35.68
2024-04-06T14:43:23.248Z,35.78
2024-04-06T14:45:51.531Z,36.09
2024-04-06T14:48:19.588Z,36.58
2024-04-06T14:50:47.556Z,36.80
2024-04-06T14:53:15.729Z,36.69
2024-04-06T14:55:43.905Z,36.14
2024-04-06T14:58:11.976Z,35.82
2024-04-06T15:00:39.876Z,35.60
2024-04-06T15:03:08.622Z,35.71
2024-04-06T15:05:36.688Z,35.07
2024-04-06T15:08:05.230Z,34.86
2024-04-06T15:10:34.790Z,34.72
2024-04-06T15:13:03.054Z,34.80
2024-04-06T15:15:31.021Z,34.65
2024-04-06T15:17:59.092Z,34.55
2024-04-06T15:20:26.957Z,34.11
2024-04-06T15:22:54.926Z,34.05
2024-04-06T15:25:22.913Z,34.29
2024-04-06T15:27:50.861Z,33.78
2024-04-06T15:30:18.731Z,33.17
2024-04-06T15:32:46.898Z,33.20
2024-04-06T15:35:14.777Z,33.25
2024-04-06T15:37:42.942Z,32.95
2024-04-06T15:40:11.419Z,32.75
2024-04-06T15:42:40.621Z,32.86
2024-04-06T15:45:09.126Z,33.24
2024-04-06T15:47:37.066Z,33.34
2024-04-06T15:50:05.550Z,33.48
2024-04-06T15:52:33.408Z,33.51
2024-04-06T15:55:01.577Z,33.83
2024-04-06T15:57:29.442Z,33.87
2024-04-06T15:59:57.617Z,33.81
2024-04-06T16:02:25.784Z,34.13
2024-04-06T16:04:53.755Z,34.19
2024-04-06T16:07:21.827Z,34.71
2024-04-06T16:09:49.704Z,35.06
2024-04-06T16:12:18.067Z,35.61
2024-04-06T16:14:45.934Z,36.02
2024-04-06T16:17:14.004Z,36.67
2024-04-06T16:19:42.481Z,36.88
2024-04-06T16:22:10.856Z,37.21
2024-04-06T16:24:39.545Z,37.60
2024-04-06T16:27:07.718Z,38.04
2024-04-06T16:29:35.582Z,38.75
2024-04-06T16:32:03.553Z,39.53
2024-04-06T16:34:36.331Z,41.27
2024-04-06T16:37:04.605Z,41.73
2024-04-06T16:39:32.724Z,41.22
2024-04-06T16:42:00.648Z,42.14
2024-04-06T16:44:30.056Z,43.98
2024-04-06T16:46:58.120Z,44.42
2024-04-06T16:49:26.039Z,44.40
2024-04-06T16:51:53.948Z,44.99
2024-04-06T16:54:22.314Z,46.50
2024-04-06T16:56:50.398Z,47.15
2024-04-06T16:59:18.473Z,47.59
2024-04-06T17:01:46.334Z,48.22
2024-04-06T17:04:14.199Z,49.03
2024-04-06T17:06:42.687Z,49.43
2024-04-06T17:09:10.543Z,50.60
2024-04-06T17:11:38.403Z,51.36
2024-04-06T17:14:06.677Z,52.25
2024-04-06T17:16:34.648Z,52.91
2024-04-06T17:19:02.464Z,53.14
2024-04-06T17:21:30.380Z,53.46
2024-04-06T17:23:58.348Z,53.63
2024-04-06T17:26:26.323Z,54.05
2024-04-06T17:28:54.128Z,54.98
2024-04-06T17:31:22.044Z,55.48
2024-04-06T17:33:50.116Z,56.13
2024-04-06T17:36:18.299Z,56.78
2024-04-06T17:38:47.005Z,57.32
2024-04-06T17:41:14.877Z,58.13
2024-04-06T17:43:42.714Z,58.86
2024-04-06T17:46:10.910Z,59.25
2024-04-06T17:48:39.665Z,59.76
2024-04-06T17:51:08.459Z,60.43
2024-04-06T17:53:36.426Z,61.70
2024-04-06T17:56:04.900Z,62.99
2024-04-06T17:58:32.819Z,63.21
2024-04-06T18:01:00.753Z,62.71
2024-04-06T18:03:28.807Z,62.45
2024-04-06T18:05:56.978Z,62.27
2024-04-06T18:08:24.842Z,62.15
2024-04-06T18:10:53.319Z,61.98
2024-04-06T18:13:23.108Z,61.92
2024-04-06T18:15:51.200Z,61.78
2024-04-06T18:18:19.069Z,61.82
2024-04-06T18:20:47.037Z,61.47
2024-04-06T18:23:15.618Z,61.45
2024-04-06T18:25:44.306Z,61.35
2024-04-06T18:28:12.675Z,61.25
2024-04-06T18:30:40.541Z,61.12
2024-04-06T18:33:08.822Z,60.91
2024-04-06T18:35:36.692Z,60.90
2024-04-06T18:38:04.914Z,61.09
2024-04-06T18:40:32.848Z,61.08
2024-04-06T18:43:02.021Z,61.08
2024-04-06T18:45:29.887Z,61.13
2024-04-06T18:47:59.733Z,61.09
2024-04-06T18:50:29.918Z,61.13
2024-04-06T18:52:57.783Z,61.41
2024-04-06T18:55:27.129Z,61.62
2024-04-06T18:57:55.462Z,61.77
2024-04-06T19:00:23.531Z,61.94
2024-04-06T19:02:51.502Z,61.99
2024-04-06T19:05:22.724Z,62.09
2024-04-06T19:07:51.118Z,62.14
2024-04-06T19:10:18.996Z,62.07
2024-04-06T19:12:46.852Z,62.18
2024-04-06T19:15:18.295Z,62.32
2024-04-06T19:17:46.060Z,62.37
2024-04-06T19:20:14.099Z,62.49
2024-04-06T19:22:41.997Z,62.69
2024-04-06T19:25:10.174Z,62.66
2024-04-06T19:27:38.151Z,62.65
2024-04-06T19:30:07.311Z,62.67
2024-04-06T19:32:36.223Z,62.85
2024-04-06T19:35:04.601Z,62.79
2024-04-06T19:37:33.138Z,62.77
2024-04-06T19:40:01.079Z,62.91
2024-04-06T19:42:29.424Z,63.07
2024-04-06T19:44:57.296Z,63.21
2024-04-06T19:47:25.461Z,62.89
2024-04-06T19:49:53.334Z,62.80
2024-04-06T19:52:21.199Z,62.97
2024-04-06T19:54:48.960Z,63.15
2024-04-06T19:57:16.823Z,63.21
2024-04-06T19:59:44.690Z,63.07
2024-04-06T20:02:13.173Z,63.04
2024-04-06T20:04:42.085Z,63.20
2024-04-06T20:07:10.132Z,63.15
2024-04-06T20:09:38.853Z,63.24
2024-04-06T20:12:07.086Z,63.35
2024-04-06T20:14:34.959Z,63.33
2024-04-06T20:17:03.026Z,63.31
2024-04-06T20:19:31.073Z,63.53
2024-04-06T20:22:17.698Z,63.59
2024-04-06T20:25:04.402Z,63.66
2024-04-06T20:27:32.382Z,63.80
2024-04-06T20:30:00.325Z,63.84
2024-04-06T20:32:28.200Z,63.95
2024-04-06T20:34:56.073Z,64.02
2024-04-06T20:37:24.040Z,64.18
2024-04-06T20:39:52.009Z,64.28
2024-04-06T20:42:20.280Z,64.48
2024-04-06T20:44:48.670Z,64.60
2024-04-06T20:47:16.630Z,64.67
2024-04-06T20:49:44.499Z,64.76
2024-04-06T20:52:17.065Z,64.76
2024-04-06T20:54:44.933Z,64.82
2024-04-06T20:57:12.914Z,64.91
2024-04-06T20:59:41.500Z,65.12
2024-04-06T21:02:09.754Z,65.33
2024-04-06T21:04:38.291Z,65.36
2024-04-06T21:07:06.203Z,65.47
2024-04-06T21:09:34.276Z,65.50
2024-04-06T21:12:02.241Z,65.64
2024-04-06T21:14:30.117Z,65.59
2024-04-06T21:16:57.975Z,65.65
2024-04-06T21:19:26.556Z,65.75
2024-04-06T21:21:54.931Z,65.88
2024-04-06T21:24:23.002Z,65.78
2024-04-06T21:26:50.870Z,65.80
2024-04-06T21:29:18.933Z,66.08
2024-04-06T21:31:46.798Z,66.17
2024-04-06T21:34:14.982Z,66.44
2024-04-06T21:36:43.514Z,66.25
2024-04-06T21:39:11.423Z,66.27
2024-04-06T21:41:40.612Z,66.39
2024-04-06T21:44:09.102Z,66.68
2024-04-06T21:46:37.029Z,66.53
2024-04-06T21:49:05.037Z,66.56
2024-04-06T21:51:33.006Z,66.67
2024-04-06T21:54:00.979Z,66.83
2024-04-06T21:56:29.044Z,66.85
2024-04-06T21:58:57.416Z,66.92
2024-04-06T22:01:26.236Z,67.28
2024-04-06T22:03:54.174Z,67.20
2024-04-06T22:06:22.853Z,67.28
2024-04-06T22:08:51.959Z,66.87
2024-04-06T22:11:19.920Z,66.74
2024-04-06T22:13:47.790Z,66.74
2024-04-06T22:16:15.647Z,66.73
2024-04-06T22:18:43.465Z,66.49
2024-04-06T22:21:11.378Z,66.29
2024-04-06T22:23:39.246Z,66.12
2024-04-06T22:26:07.212Z,65.73
2024-04-06T22:28:35.081Z,65.45
2024-04-06T22:31:03.149Z,65.15
2024-04-06T22:33:31.111Z,64.99
2024-04-06T22:35:58.978Z,64.94
2024-04-06T22:38:26.946Z,64.92
2024-04-06T22:40:55.603Z,64.85
2024-04-06T22:43:23.598Z,64.84
2024-04-06T22:45:51.665Z,64.99
2024-04-06T22:48:19.545Z,65.16
2024-04-06T22:50:47.398Z,65.29
2024-04-06T22:53:15.260Z,65.41
2024-04-06T22:55:43.298Z,65.36
2024-04-06T22:58:11.609Z,65.48
2024-04-06T23:00:39.586Z,65.41
2024-04-06T23:03:07.859Z,65.38
2024-04-06T23:05:36.122Z,65.29
2024-04-06T23:08:04.638Z,65.24
2024-04-06T23:10:33.706Z,65.14
2024-04-06T23:13:01.677Z,65.14
2024-04-06T23:15:29.953Z,65.30
2024-04-06T23:17:57.819Z,65.43
2024-04-06T23:20:25.676Z,65.47
2024-04-06T23:22:53.540Z,65.70
2024-04-06T23:25:21.611Z,66.03
2024-04-06T23:27:49.476Z,66.14
2024-04-06T23:30:17.551Z,66.39
2024-04-06T23:32:45.412Z,66.66
2024-04-06T23:35:13.276Z,66.72
2024-04-06T23:37:41.285Z,66.90
2024-04-06T23:40:09.727Z,67.02
2024-04-06T23:42:37.590Z,67.12
2024-04-06T23:45:06.067Z,67.28
2024-04-06T23:47:33.949Z,67.44
2024-04-06T23:50:01.800Z,67.59
2024-04-06T23:52:29.768Z,67.65
2024-04-06T23:54:59.173Z,67.79
2024-04-06T23:57:27.444Z,67.86
2024-04-06T23:59:55.420Z,68.17
